Weather at Corn Alley 2 Airport

Public forecast

Using degrees Fahrenheit for public forecast. Weather courtesy of forecast.io.

Closest aviation weather report (METAR) to Corn Alley 2 Airport

Closest report is Central Illinois Regional Airport at Bloomington-Normal, 17.3 nm (32.1 km) SSE. Retrieved 2020/12/02 04:56 UTC (30 minutes ago):

KBMI 020456Z AUTO 29005KT 10SM CLR M05/M08 A3024 RMK AO2 SLP247 T10501083

Closest aviation forecast (TAF) to Corn Alley 2 Airport

Closest forecast is Central Illinois Regional Airport at Bloomington-Normal, 17.3 nm (32.1 km) SSE. Retrieved 2020-12-02 00:22 UTC (5 hours ago):

TAF KBMI 012320Z 0200/0224 30006KT P6SM FEW250